LFAT/LTQ METAR and TAF weather

Enter ICAO airport designator
Station Type Date Time Source
LFAT METAR 2020/11/25 22:00 UTC NOAA

LFAT 252200Z AUTO 11004KT 6000 NSC 09/08 Q1018


Station Type Date Time Source
LFAT Decoded METAR 2020/11/25 22:00 UTC NOAA

Le Touquet, France (LFAT) 50-31N 001-37E 14M
Nov 25, 2020 - 05:00 PM EST / 2020.11.25 2200 UTC
Wind: from the ESE (110 degrees) at 5 MPH (4 KT):0
Visibility: 3 mile(s):0
Temperature: 48 F (9 C)
Dew Point: 46 F (8 C)
Relative Humidity: 93%
Pressure (altimeter): 30.06 in. Hg (1018 hPa)
ob: LFAT 252200Z AUTO 11004KT 6000 NSC 09/08 Q1018
cycle: 22

Station Type Date Time Source
LFAT TAF 2018/07/14 09:21 UTC NOAA

TAF TAF LFAT 140800Z 1409/1421 09004KT 8000 NSC
BECMG 1409/1411 30010KT

Example: see airport list